sensor_id;sensor_type;location;lat;lon;timestamp;pressure;altitude;pressure_sealevel;temperature;humidity
77112;BME280;66064;50.226;14.344;2023-03-21T00:00:38;99630.66;;;6.60;84.52
77112;BME280;66064;50.226;14.344;2023-03-21T00:03:18;99616.09;;;6.76;84.55
77112;BME280;66064;50.226;14.344;2023-03-21T00:05:44;99632.31;;;6.90;85.08
77112;BME280;66064;50.226;14.344;2023-03-21T00:08:15;99615.50;;;7.22;83.79
77112;BME280;66064;50.226;14.344;2023-03-21T00:10:40;99612.03;;;7.25;82.86
77112;BME280;66064;50.226;14.344;2023-03-21T00:13:06;99597.16;;;7.30;82.81
77112;BME280;66064;50.226;14.344;2023-03-21T00:15:32;99592.56;;;7.23;83.09
77112;BME280;66064;50.226;14.344;2023-03-21T00:17:58;99586.25;;;7.18;82.96
77112;BME280;66064;50.226;14.344;2023-03-21T00:20:35;99601.56;;;7.31;82.98
77112;BME280;66064;50.226;14.344;2023-03-21T00:23:03;99600.66;;;7.29;83.12
77112;BME280;66064;50.226;14.344;2023-03-21T00:25:29;99600.91;;;7.40;82.95
77112;BME280;66064;50.226;14.344;2023-03-21T00:27:57;99593.72;;;7.34;82.85
77112;BME280;66064;50.226;14.344;2023-03-21T00:30:23;99559.25;;;7.32;82.61
77112;BME280;66064;50.226;14.344;2023-03-21T00:32:49;99591.06;;;7.34;83.41
77112;BME280;66064;50.226;14.344;2023-03-21T00:35:15;99538.34;;;7.06;83.43
77112;BME280;66064;50.226;14.344;2023-03-21T00:37:41;99566.75;;;7.13;83.50
77112;BME280;66064;50.226;14.344;2023-03-21T00:40:08;99573.19;;;7.24;83.12
77112;BME280;66064;50.226;14.344;2023-03-21T00:42:35;99570.69;;;7.31;83.62
77112;BME280;66064;50.226;14.344;2023-03-21T00:45:02;99573.44;;;7.34;83.13
77112;BME280;66064;50.226;14.344;2023-03-21T00:47:29;99590.84;;;7.25;83.37
77112;BME280;66064;50.226;14.344;2023-03-21T00:49:54;99579.00;;;7.09;83.63
77112;BME280;66064;50.226;14.344;2023-03-21T00:52:20;99581.44;;;7.01;84.47
77112;BME280;66064;50.226;14.344;2023-03-21T00:54:47;99579.88;;;6.74;84.56
77112;BME280;66064;50.226;14.344;2023-03-21T00:57:13;99593.50;;;6.56;84.21
77112;BME280;66064;50.226;14.344;2023-03-21T00:59:39;99589.53;;;6.39;85.37
77112;BME280;66064;50.226;14.344;2023-03-21T01:02:05;99596.19;;;6.24;85.84
77112;BME280;66064;50.226;14.344;2023-03-21T01:04:39;99593.84;;;6.05;86.13
77112;BME280;66064;50.226;14.344;2023-03-21T01:07:05;99587.16;;;5.88;87.42
77112;BME280;66064;50.226;14.344;2023-03-21T01:09:31;99558.00;;;5.85;88.26
77112;BME280;66064;50.226;14.344;2023-03-21T01:11:57;99585.78;;;5.99;87.59
77112;BME280;66064;50.226;14.344;2023-03-21T01:14:24;99581.81;;;5.86;88.08
77112;BME280;66064;50.226;14.344;2023-03-21T01:16:51;99581.53;;;5.76;87.79
77112;BME280;66064;50.226;14.344;2023-03-21T01:19:19;99577.50;;;5.58;88.12
77112;BME280;66064;50.226;14.344;2023-03-21T01:21:45;99585.41;;;5.58;88.15
77112;BME280;66064;50.226;14.344;2023-03-21T01:24:11;99571.25;;;5.56;88.92
77112;BME280;66064;50.226;14.344;2023-03-21T01:26:37;99588.28;;;5.66;88.23
77112;BME280;66064;50.226;14.344;2023-03-21T01:29:03;99566.13;;;5.61;88.66
77112;BME280;66064;50.226;14.344;2023-03-21T01:31:29;99570.97;;;5.76;88.74
77112;BME280;66064;50.226;14.344;2023-03-21T01:33:55;99568.56;;;5.85;88.08
77112;BME280;66064;50.226;14.344;2023-03-21T01:36:23;99577.84;;;5.99;87.88
77112;BME280;66064;50.226;14.344;2023-03-21T01:38:50;99578.66;;;5.96;87.27
77112;BME280;66064;50.226;14.344;2023-03-21T01:41:27;99567.25;;;5.97;87.38
77112;BME280;66064;50.226;14.344;2023-03-21T01:43:54;99571.97;;;6.09;87.68
77112;BME280;66064;50.226;14.344;2023-03-21T01:46:34;99591.69;;;6.22;87.64
77112;BME280;66064;50.226;14.344;2023-03-21T01:49:34;99586.44;;;6.23;87.64
77112;BME280;66064;50.226;14.344;2023-03-21T01:52:08;99587.63;;;6.33;87.76
77112;BME280;66064;50.226;14.344;2023-03-21T01:54:37;99584.28;;;6.40;87.44
77112;BME280;66064;50.226;14.344;2023-03-21T01:57:11;99578.78;;;6.32;87.35
77112;BME280;66064;50.226;14.344;2023-03-21T01:59:49;99577.75;;;6.27;87.36
77112;BME280;66064;50.226;14.344;2023-03-21T02:02:20;99575.28;;;6.33;87.50
77112;BME280;66064;50.226;14.344;2023-03-21T02:04:48;99575.53;;;6.43;88.09
77112;BME280;66064;50.226;14.344;2023-03-21T02:07:46;99570.44;;;6.49;87.66
77112;BME280;66064;50.226;14.344;2023-03-21T02:10:15;99570.47;;;6.52;87.65
77112;BME280;66064;50.226;14.344;2023-03-21T02:12:41;99564.50;;;6.59;87.39
77112;BME280;66064;50.226;14.344;2023-03-21T02:15:08;99564.44;;;6.56;87.32
77112;BME280;66064;50.226;14.344;2023-03-21T02:17:49;99550.28;;;6.54;87.40
77112;BME280;66064;50.226;14.344;2023-03-21T02:29:03;99571.34;;;6.51;87.50
77112;BME280;66064;50.226;14.344;2023-03-21T02:42:10;99551.34;;;6.27;87.00
77112;BME280;66064;50.226;14.344;2023-03-21T02:44:44;99576.34;;;6.40;86.84
77112;BME280;66064;50.226;14.344;2023-03-21T02:47:17;99572.94;;;6.44;87.26
77112;BME280;66064;50.226;14.344;2023-03-21T02:49:56;99580.69;;;6.71;86.42
77112;BME280;66064;50.226;14.344;2023-03-21T02:52:29;99573.91;;;6.81;85.78
77112;BME280;66064;50.226;14.344;2023-03-21T02:54:57;99545.03;;;6.90;85.29
77112;BME280;66064;50.226;14.344;2023-03-21T02:57:24;99568.38;;;7.08;84.54
77112;BME280;66064;50.226;14.344;2023-03-21T02:59:50;99562.94;;;7.01;84.40
77112;BME280;66064;50.226;14.344;2023-03-21T03:02:24;99566.56;;;7.05;84.46
77112;BME280;66064;50.226;14.344;2023-03-21T03:04:51;99552.19;;;6.94;84.64
77112;BME280;66064;50.226;14.344;2023-03-21T03:07:20;99569.75;;;6.92;84.77
77112;BME280;66064;50.226;14.344;2023-03-21T03:12:26;99563.19;;;6.76;85.38
77112;BME280;66064;50.226;14.344;2023-03-21T03:20:12;99557.34;;;6.55;85.69
77112;BME280;66064;50.226;14.344;2023-03-21T03:25:13;99545.03;;;6.90;84.13
77112;BME280;66064;50.226;14.344;2023-03-21T03:27:46;99566.34;;;6.96;84.25
77112;BME280;66064;50.226;14.344;2023-03-21T03:30:14;99561.69;;;6.87;84.81
77112;BME280;66064;50.226;14.344;2023-03-21T03:32:45;99570.78;;;6.98;84.31
77112;BME280;66064;50.226;14.344;2023-03-21T03:35:16;99567.44;;;7.06;84.09
77112;BME280;66064;50.226;14.344;2023-03-21T03:37:47;99565.50;;;6.98;84.54
77112;BME280;66064;50.226;14.344;2023-03-21T03:40:19;99557.84;;;7.09;83.71
77112;BME280;66064;50.226;14.344;2023-03-21T03:42:50;99556.25;;;7.17;83.38
77112;BME280;66064;50.226;14.344;2023-03-21T03:45:22;99552.97;;;7.27;82.85
77112;BME280;66064;50.226;14.344;2023-03-21T03:55:37;99549.13;;;7.52;81.33
77112;BME280;66064;50.226;14.344;2023-03-21T03:58:03;99551.03;;;7.58;81.42
77112;BME280;66064;50.226;14.344;2023-03-21T04:00:33;99546.59;;;7.57;80.96
77112;BME280;66064;50.226;14.344;2023-03-21T04:02:59;99549.19;;;7.55;81.14
77112;BME280;66064;50.226;14.344;2023-03-21T04:05:25;99547.41;;;7.54;81.52
77112;BME280;66064;50.226;14.344;2023-03-21T04:07:52;99554.56;;;7.58;81.50
77112;BME280;66064;50.226;14.344;2023-03-21T04:10:19;99544.03;;;7.61;80.81
77112;BME280;66064;50.226;14.344;2023-03-21T04:12:46;99545.88;;;7.65;80.39
77112;BME280;66064;50.226;14.344;2023-03-21T04:15:12;99535.09;;;7.56;80.89
77112;BME280;66064;50.226;14.344;2023-03-21T04:17:38;99554.63;;;7.61;81.03
77112;BME280;66064;50.226;14.344;2023-03-21T04:20:05;99534.94;;;7.50;80.93
77112;BME280;66064;50.226;14.344;2023-03-21T04:22:32;99546.69;;;7.61;80.73
77112;BME280;66064;50.226;14.344;2023-03-21T04:24:59;99545.84;;;7.62;80.58
77112;BME280;66064;50.226;14.344;2023-03-21T04:27:30;99547.59;;;7.63;80.44
77112;BME280;66064;50.226;14.344;2023-03-21T04:29:57;99541.22;;;7.54;80.68
77112;BME280;66064;50.226;14.344;2023-03-21T04:32:24;99556.31;;;7.58;80.14
77112;BME280;66064;50.226;14.344;2023-03-21T04:34:51;99556.34;;;7.59;80.08
77112;BME280;66064;50.226;14.344;2023-03-21T04:37:22;99551.06;;;7.59;80.20
77112;BME280;66064;50.226;14.344;2023-03-21T04:39:49;99559.00;;;7.59;79.93
77112;BME280;66064;50.226;14.344;2023-03-21T04:42:16;99534.84;;;7.44;80.49
77112;BME280;66064;50.226;14.344;2023-03-21T04:44:46;99548.13;;;7.46;80.45
77112;BME280;66064;50.226;14.344;2023-03-21T04:47:12;99557.03;;;7.51;80.19
77112;BME280;66064;50.226;14.344;2023-03-21T04:49:41;99561.50;;;7.53;80.41
77112;BME280;66064;50.226;14.344;2023-03-21T04:52:07;99550.84;;;7.50;80.25
77112;BME280;66064;50.226;14.344;2023-03-21T04:54:33;99560.53;;;7.50;80.13
77112;BME280;66064;50.226;14.344;2023-03-21T04:57:00;99561.44;;;7.50;80.02
77112;BME280;66064;50.226;14.344;2023-03-21T04:59:26;99557.03;;;7.51;79.87
77112;BME280;66064;50.226;14.344;2023-03-21T05:01:52;99552.63;;;7.51;79.94
77112;BME280;66064;50.226;14.344;2023-03-21T05:04:21;99551.63;;;7.45;80.50
77112;BME280;66064;50.226;14.344;2023-03-21T05:06:47;99538.94;;;7.31;80.39
77112;BME280;66064;50.226;14.344;2023-03-21T05:09:13;99560.50;;;7.48;79.78
77112;BME280;66064;50.226;14.344;2023-03-21T05:11:39;99564.81;;;7.43;80.65
77112;BME280;66064;50.226;14.344;2023-03-21T05:14:08;99557.81;;;7.45;80.40
77112;BME280;66064;50.226;14.344;2023-03-21T05:16:35;99558.75;;;7.49;80.33
77112;BME280;66064;50.226;14.344;2023-03-21T05:19:01;99559.75;;;7.54;79.99
77112;BME280;66064;50.226;14.344;2023-03-21T05:21:33;99559.81;;;7.57;79.72
77112;BME280;66064;50.226;14.344;2023-03-21T05:24:08;99567.91;;;7.63;79.60
77112;BME280;66064;50.226;14.344;2023-03-21T05:26:38;99565.28;;;7.63;79.58
77112;BME280;66064;50.226;14.344;2023-03-21T05:29:04;99563.56;;;7.66;79.32
77112;BME280;66064;50.226;14.344;2023-03-21T05:31:30;99568.00;;;7.67;79.27
77112;BME280;66064;50.226;14.344;2023-03-21T05:33:56;99561.09;;;7.74;79.50
77112;BME280;66064;50.226;14.344;2023-03-21T05:36:22;99562.88;;;7.75;79.04
77112;BME280;66064;50.226;14.344;2023-03-21T05:38:48;99567.22;;;7.71;79.21
77112;BME280;66064;50.226;14.344;2023-03-21T05:41:15;99550.47;;;7.72;78.78
77112;BME280;66064;50.226;14.344;2023-03-21T05:43:42;99574.69;;;7.91;78.54
77112;BME280;66064;50.226;14.344;2023-03-21T05:46:08;99573.16;;;8.02;78.12
77112;BME280;66064;50.226;14.344;2023-03-21T05:48:35;99570.44;;;7.99;77.90
77112;BME280;66064;50.226;14.344;2023-03-21T05:51:01;99565.09;;;7.97;77.23
77112;BME280;66064;50.226;14.344;2023-03-21T05:53:27;99573.22;;;8.05;77.27
77112;BME280;66064;50.226;14.344;2023-03-21T05:55:53;99578.59;;;8.08;77.31
77112;BME280;66064;50.226;14.344;2023-03-21T05:58:20;99565.19;;;8.02;77.29
77112;BME280;66064;50.226;14.344;2023-03-21T06:00:45;99573.53;;;8.20;76.58
77112;BME280;66064;50.226;14.344;2023-03-21T06:03:11;99582.63;;;8.33;77.34
77112;BME280;66064;50.226;14.344;2023-03-21T06:05:37;99588.22;;;8.48;76.20
77112;BME280;66064;50.226;14.344;2023-03-21T06:08:03;99585.84;;;8.60;74.88
77112;BME280;66064;50.226;14.344;2023-03-21T06:10:29;99582.41;;;8.67;75.17
77112;BME280;66064;50.226;14.344;2023-03-21T06:12:55;99588.03;;;8.86;74.33
77112;BME280;66064;50.226;14.344;2023-03-21T06:15:21;99587.03;;;8.79;73.64
77112;BME280;66064;50.226;14.344;2023-03-21T06:17:47;99582.78;;;8.89;74.44
77112;BME280;66064;50.226;14.344;2023-03-21T06:20:13;99588.44;;;9.08;74.17
77112;BME280;66064;50.226;14.344;2023-03-21T06:22:39;99592.94;;;9.14;73.79
77112;BME280;66064;50.226;14.344;2023-03-21T06:25:05;99592.06;;;9.13;72.27
77112;BME280;66064;50.226;14.344;2023-03-21T06:27:35;99590.50;;;9.28;72.31
77112;BME280;66064;50.226;14.344;2023-03-21T06:30:00;99578.38;;;9.45;71.78
77112;BME280;66064;50.226;14.344;2023-03-21T06:32:27;99566.19;;;9.58;70.59
77112;BME280;66064;50.226;14.344;2023-03-21T06:34:52;99570.63;;;9.57;69.80
77112;BME280;66064;50.226;14.344;2023-03-21T06:37:19;99582.16;;;9.61;70.53
77112;BME280;66064;50.226;14.344;2023-03-21T06:39:44;99600.06;;;9.75;69.94
77112;BME280;66064;50.226;14.344;2023-03-21T06:42:12;99595.00;;;9.94;69.18
77112;BME280;66064;50.226;14.344;2023-03-21T06:44:38;99593.63;;;11.06;66.43
77112;BME280;66064;50.226;14.344;2023-03-21T06:47:05;99592.69;;;12.36;61.66
77112;BME280;66064;50.226;14.344;2023-03-21T06:49:31;99587.28;;;12.21;60.93
77112;BME280;66064;50.226;14.344;2023-03-21T06:51:57;99574.88;;;12.26;60.47
77112;BME280;66064;50.226;14.344;2023-03-21T06:54:22;99596.00;;;11.86;61.65
77112;BME280;66064;50.226;14.344;2023-03-21T06:56:49;99580.03;;;11.86;61.03
77112;BME280;66064;50.226;14.344;2023-03-21T06:59:14;99590.16;;;12.79;59.90
77112;BME280;66064;50.226;14.344;2023-03-21T07:01:40;99590.22;;;13.26;56.70
77112;BME280;66064;50.226;14.344;2023-03-21T07:04:09;99594.69;;;13.25;55.94
77112;BME280;66064;50.226;14.344;2023-03-21T07:06:35;99586.66;;;13.16;57.45
77112;BME280;66064;50.226;14.344;2023-03-21T07:09:02;99594.63;;;13.04;58.66
77112;BME280;66064;50.226;14.344;2023-03-21T07:11:28;99572.41;;;13.26;55.99
77112;BME280;66064;50.226;14.344;2023-03-21T07:13:54;99577.75;;;13.29;56.16
77112;BME280;66064;50.226;14.344;2023-03-21T07:16:20;99577.75;;;13.46;55.54
77112;BME280;66064;50.226;14.344;2023-03-21T07:18:46;99568.84;;;13.40;55.26
77112;BME280;66064;50.226;14.344;2023-03-21T07:21:12;99591.97;;;13.66;54.67
77112;BME280;66064;50.226;14.344;2023-03-21T07:23:38;99576.84;;;13.37;53.96
77112;BME280;66064;50.226;14.344;2023-03-21T07:26:05;99578.59;;;13.68;53.54
77112;BME280;66064;50.226;14.344;2023-03-21T07:28:31;99594.69;;;13.15;55.58
77112;BME280;66064;50.226;14.344;2023-03-21T07:31:02;99576.13;;;15.13;52.22
77112;BME280;66064;50.226;14.344;2023-03-21T07:33:29;99572.09;;;15.69;48.58
77112;BME280;66064;50.226;14.344;2023-03-21T07:35:56;99575.59;;;17.67;44.03
77112;BME280;66064;50.226;14.344;2023-03-21T07:38:26;99566.78;;;19.27;40.99
77112;BME280;66064;50.226;14.344;2023-03-21T07:40:52;99557.63;;;21.21;36.04
77112;BME280;66064;50.226;14.344;2023-03-21T07:43:18;99551.72;;;21.88;32.77
77112;BME280;66064;50.226;14.344;2023-03-21T07:45:45;99555.09;;;23.34;32.18
77112;BME280;66064;50.226;14.344;2023-03-21T07:48:11;99554.56;;;23.25;30.10
77112;BME280;66064;50.226;14.344;2023-03-21T07:50:39;99557.91;;;21.40;34.74
77112;BME280;66064;50.226;14.344;2023-03-21T07:53:06;99562.00;;;20.68;34.41
77112;BME280;66064;50.226;14.344;2023-03-21T07:55:32;99563.56;;;20.13;36.21
77112;BME280;66064;50.226;14.344;2023-03-21T07:58:01;99560.88;;;19.81;37.34
77112;BME280;66064;50.226;14.344;2023-03-21T08:00:27;99556.50;;;20.99;36.13
77112;BME280;66064;50.226;14.344;2023-03-21T08:02:55;99544.16;;;23.58;31.22
77112;BME280;66064;50.226;14.344;2023-03-21T08:05:22;99547.25;;;22.83;31.83
77112;BME280;66064;50.226;14.344;2023-03-21T08:07:49;99554.97;;;21.97;31.20
77112;BME280;66064;50.226;14.344;2023-03-21T08:10:16;99541.56;;;21.93;32.52
77112;BME280;66064;50.226;14.344;2023-03-21T08:12:42;99553.09;;;21.48;33.55
77112;BME280;66064;50.226;14.344;2023-03-21T08:15:09;99540.22;;;22.78;31.68
77112;BME280;66064;50.226;14.344;2023-03-21T08:17:36;99532.41;;;26.03;27.02
77112;BME280;66064;50.226;14.344;2023-03-21T08:20:07;99527.53;;;25.03;27.34
77112;BME280;66064;50.226;14.344;2023-03-21T08:22:34;99559.75;;;23.95;28.23
77112;BME280;66064;50.226;14.344;2023-03-21T08:25:03;99561.00;;;23.44;30.29
77112;BME280;66064;50.226;14.344;2023-03-21T08:27:30;99565.78;;;22.47;30.65
77112;BME280;66064;50.226;14.344;2023-03-21T08:29:57;99559.16;;;21.56;33.37
77112;BME280;66064;50.226;14.344;2023-03-21T08:32:23;99559.75;;;22.87;30.56
77112;BME280;66064;50.226;14.344;2023-03-21T08:35:00;99549.91;;;23.28;29.57
77112;BME280;66064;50.226;14.344;2023-03-21T08:37:27;99558.72;;;23.77;30.00
77112;BME280;66064;50.226;14.344;2023-03-21T08:39:53;99558.19;;;24.10;29.40
77112;BME280;66064;50.226;14.344;2023-03-21T08:42:19;99551.56;;;24.56;29.28
77112;BME280;66064;50.226;14.344;2023-03-21T08:44:47;99552.25;;;23.37;31.29
77112;BME280;66064;50.226;14.344;2023-03-21T08:47:13;99550.13;;;22.79;30.61
77112;BME280;66064;50.226;14.344;2023-03-21T08:49:39;99563.69;;;22.07;31.89
77112;BME280;66064;50.226;14.344;2023-03-21T08:52:06;99553.63;;;21.84;31.50
77112;BME280;66064;50.226;14.344;2023-03-21T08:54:32;99548.84;;;20.85;32.61
77112;BME280;66064;50.226;14.344;2023-03-21T08:56:58;99563.28;;;20.84;34.76
77112;BME280;66064;50.226;14.344;2023-03-21T08:59:24;99565.69;;;21.49;31.90
77112;BME280;66064;50.226;14.344;2023-03-21T09:01:50;99533.81;;;24.85;29.63
77112;BME280;66064;50.226;14.344;2023-03-21T09:04:16;99550.72;;;24.54;26.46
77112;BME280;66064;50.226;14.344;2023-03-21T09:06:43;99560.19;;;22.75;29.44
77112;BME280;66064;50.226;14.344;2023-03-21T09:09:14;99559.44;;;20.00;34.79
77112;BME280;66064;50.226;14.344;2023-03-21T09:11:40;99551.06;;;19.78;36.53
77112;BME280;66064;50.226;14.344;2023-03-21T09:14:07;99550.91;;;20.77;34.53
77112;BME280;66064;50.226;14.344;2023-03-21T09:16:33;99559.59;;;21.94;31.39
77112;BME280;66064;50.226;14.344;2023-03-21T09:19:00;99549.97;;;23.27;29.89
77112;BME280;66064;50.226;14.344;2023-03-21T09:21:26;99548.63;;;22.47;32.22
77112;BME280;66064;50.226;14.344;2023-03-21T09:23:53;99562.16;;;21.74;32.85
77112;BME280;66064;50.226;14.344;2023-03-21T09:26:22;99554.97;;;21.20;33.14
77112;BME280;66064;50.226;14.344;2023-03-21T09:28:49;99550.13;;;21.02;32.35
77112;BME280;66064;50.226;14.344;2023-03-21T09:31:16;99554.38;;;23.53;30.12
77112;BME280;66064;50.226;14.344;2023-03-21T09:33:46;99550.78;;;23.51;31.14
77112;BME280;66064;50.226;14.344;2023-03-21T09:36:12;99547.66;;;24.02;30.06
77112;BME280;66064;50.226;14.344;2023-03-21T09:38:42;99538.59;;;25.53;25.84
77112;BME280;66064;50.226;14.344;2023-03-21T09:41:39;99555.00;;;26.22;26.58
77112;BME280;66064;50.226;14.344;2023-03-21T09:47:25;99542.19;;;27.37;22.53
77112;BME280;66064;50.226;14.344;2023-03-21T09:50:10;99539.63;;;27.80;22.20
77112;BME280;66064;50.226;14.344;2023-03-21T09:52:49;99531.44;;;27.18;23.83
77112;BME280;66064;50.226;14.344;2023-03-21T09:55:25;99530.16;;;27.71;24.44
77112;BME280;66064;50.226;14.344;2023-03-21T10:00:45;99521.34;;;27.66;21.96
77112;BME280;66064;50.226;14.344;2023-03-21T10:03:18;99519.56;;;28.39;21.98
77112;BME280;66064;50.226;14.344;2023-03-21T10:05:49;99533.41;;;29.88;21.49
77112;BME280;66064;50.226;14.344;2023-03-21T10:08:38;99528.50;;;31.91;18.41
77112;BME280;66064;50.226;14.344;2023-03-21T10:13:39;99516.22;;;31.00;18.86
77112;BME280;66064;50.226;14.344;2023-03-21T10:16:15;99519.16;;;27.41;24.04
77112;BME280;66064;50.226;14.344;2023-03-21T10:18:43;99528.41;;;26.76;23.20
77112;BME280;66064;50.226;14.344;2023-03-21T10:21:21;99520.19;;;26.27;26.22
77112;BME280;66064;50.226;14.344;2023-03-21T10:23:49;99487.47;;;28.84;23.09
77112;BME280;66064;50.226;14.344;2023-03-21T10:26:18;99508.28;;;28.58;22.99
77112;BME280;66064;50.226;14.344;2023-03-21T10:28:45;99504.28;;;28.92;23.60
77112;BME280;66064;50.226;14.344;2023-03-21T10:31:23;99519.63;;;29.36;22.32
77112;BME280;66064;50.226;14.344;2023-03-21T10:33:52;99513.56;;;27.74;23.79
77112;BME280;66064;50.226;14.344;2023-03-21T10:36:24;99501.38;;;28.81;22.61
77112;BME280;66064;50.226;14.344;2023-03-21T10:38:54;99486.75;;;30.15;20.14
77112;BME280;66064;50.226;14.344;2023-03-21T10:41:21;99501.78;;;30.60;20.32
77112;BME280;66064;50.226;14.344;2023-03-21T10:44:03;99492.34;;;30.13;19.95
77112;BME280;66064;50.226;14.344;2023-03-21T10:46:30;99499.09;;;27.27;22.95
77112;BME280;66064;50.226;14.344;2023-03-21T10:48:56;99490.13;;;24.69;27.63
77112;BME280;66064;50.226;14.344;2023-03-21T10:51:27;99510.47;;;23.20;30.17
77112;BME280;66064;50.226;14.344;2023-03-21T10:54:08;99516.81;;;23.62;31.00
77112;BME280;66064;50.226;14.344;2023-03-21T10:56:43;99512.13;;;23.66;30.93
77112;BME280;66064;50.226;14.344;2023-03-21T10:59:17;99512.72;;;23.72;29.22
77112;BME280;66064;50.226;14.344;2023-03-21T11:01:48;99505.22;;;22.93;32.13
77112;BME280;66064;50.226;14.344;2023-03-21T11:04:18;99510.69;;;22.23;31.98
77112;BME280;66064;50.226;14.344;2023-03-21T11:06:54;99504.66;;;21.65;34.41
77112;BME280;66064;50.226;14.344;2023-03-21T11:09:24;99513.94;;;21.83;34.57
77112;BME280;66064;50.226;14.344;2023-03-21T11:14:39;99493.47;;;23.15;30.82
77112;BME280;66064;50.226;14.344;2023-03-21T11:19:57;99486.09;;;22.96;31.15
77112;BME280;66064;50.226;14.344;2023-03-21T11:22:36;99482.31;;;22.32;32.49
77112;BME280;66064;50.226;14.344;2023-03-21T11:25:06;99483.91;;;22.14;33.45
77112;BME280;66064;50.226;14.344;2023-03-21T11:27:34;99485.94;;;21.33;35.54
77112;BME280;66064;50.226;14.344;2023-03-21T11:30:02;99489.72;;;21.79;33.98
77112;BME280;66064;50.226;14.344;2023-03-21T11:32:32;99463.69;;;21.50;32.99
77112;BME280;66064;50.226;14.344;2023-03-21T11:37:31;99483.91;;;21.40;34.38
77112;BME280;66064;50.226;14.344;2023-03-21T11:40:12;99488.41;;;21.13;33.69
77112;BME280;66064;50.226;14.344;2023-03-21T11:42:45;99475.69;;;20.88;35.06
77112;BME280;66064;50.226;14.344;2023-03-21T11:45:19;99462.81;;;20.41;36.33
77112;BME280;66064;50.226;14.344;2023-03-21T11:47:47;99464.50;;;22.48;32.68
77112;BME280;66064;50.226;14.344;2023-03-21T11:50:20;99454.78;;;23.10;31.80
77112;BME280;66064;50.226;14.344;2023-03-21T11:55:38;99461.94;;;21.97;33.53
77112;BME280;66064;50.226;14.344;2023-03-21T12:00:47;99440.69;;;23.42;30.91
77112;BME280;66064;50.226;14.344;2023-03-21T12:05:59;99425.69;;;25.24;26.39
77112;BME280;66064;50.226;14.344;2023-03-21T12:24:50;99404.66;;;23.59;30.75
77112;BME280;66064;50.226;14.344;2023-03-21T12:30:25;99392.63;;;22.60;32.15
77112;BME280;66064;50.226;14.344;2023-03-21T12:33:13;99387.25;;;22.37;32.38
77112;BME280;66064;50.226;14.344;2023-03-21T12:38:20;99385.53;;;26.28;25.94
77112;BME280;66064;50.226;14.344;2023-03-21T12:41:04;99379.22;;;26.43;27.42
77112;BME280;66064;50.226;14.344;2023-03-21T12:46:23;99361.66;;;25.67;26.61
77112;BME280;66064;50.226;14.344;2023-03-21T12:49:01;99367.28;;;25.64;26.77
77112;BME280;66064;50.226;14.344;2023-03-21T12:51:35;99369.44;;;24.70;28.88
77112;BME280;66064;50.226;14.344;2023-03-21T13:02:33;99358.56;;;18.77;39.21
77112;BME280;66064;50.226;14.344;2023-03-21T13:07:38;99351.88;;;21.71;34.41
77112;BME280;66064;50.226;14.344;2023-03-21T13:10:13;99350.97;;;23.05;34.29
77112;BME280;66064;50.226;14.344;2023-03-21T13:20:46;99341.66;;;20.25;36.13
77112;BME280;66064;50.226;14.344;2023-03-21T13:23:14;99330.50;;;19.80;37.04
77112;BME280;66064;50.226;14.344;2023-03-21T13:25:47;99327.09;;;19.74;37.35
77112;BME280;66064;50.226;14.344;2023-03-21T13:28:34;99320.66;;;19.78;36.64
77112;BME280;66064;50.226;14.344;2023-03-21T13:31:24;99314.06;;;20.14;37.31
77112;BME280;66064;50.226;14.344;2023-03-21T13:33:53;99319.53;;;19.85;37.93
77112;BME280;66064;50.226;14.344;2023-03-21T13:36:29;99304.50;;;19.76;37.20
77112;BME280;66064;50.226;14.344;2023-03-21T13:39:03;99314.88;;;19.90;37.45
77112;BME280;66064;50.226;14.344;2023-03-21T13:41:31;99320.75;;;19.44;39.32
77112;BME280;66064;50.226;14.344;2023-03-21T13:48:54;99318.22;;;19.69;39.65
77112;BME280;66064;50.226;14.344;2023-03-21T13:56:48;99311.59;;;19.80;37.55
77112;BME280;66064;50.226;14.344;2023-03-21T14:02:27;99309.22;;;20.25;37.45
77112;BME280;66064;50.226;14.344;2023-03-21T14:04:57;99305.31;;;19.80;37.12
77112;BME280;66064;50.226;14.344;2023-03-21T14:07:30;99291.53;;;19.29;38.47
77112;BME280;66064;50.226;14.344;2023-03-21T14:10:00;99308.94;;;19.17;39.34
77112;BME280;66064;50.226;14.344;2023-03-21T14:12:46;99303.09;;;19.32;38.96
77112;BME280;66064;50.226;14.344;2023-03-21T14:15:20;99301.91;;;19.73;38.12
77112;BME280;66064;50.226;14.344;2023-03-21T14:17:52;99298.69;;;19.61;38.88
77112;BME280;66064;50.226;14.344;2023-03-21T14:20:30;99281.63;;;19.29;38.98
77112;BME280;66064;50.226;14.344;2023-03-21T14:22:56;99295.22;;;18.94;39.74
77112;BME280;66064;50.226;14.344;2023-03-21T14:25:30;99301.75;;;19.16;39.93
77112;BME280;66064;50.226;14.344;2023-03-21T14:27:59;99302.47;;;18.92;39.99
77112;BME280;66064;50.226;14.344;2023-03-21T14:30:31;99282.66;;;18.93;39.59
77112;BME280;66064;50.226;14.344;2023-03-21T14:33:01;99298.97;;;18.88;41.80
77112;BME280;66064;50.226;14.344;2023-03-21T14:35:29;99286.47;;;19.16;40.32
77112;BME280;66064;50.226;14.344;2023-03-21T14:38:03;99287.19;;;19.23;38.97
77112;BME280;66064;50.226;14.344;2023-03-21T14:40:30;99293.78;;;18.80;40.41
77112;BME280;66064;50.226;14.344;2023-03-21T14:42:55;99278.53;;;19.12;40.42
77112;BME280;66064;50.226;14.344;2023-03-21T14:45:25;99281.72;;;18.61;41.48
77112;BME280;66064;50.226;14.344;2023-03-21T14:48:05;99270.69;;;18.35;41.26
77112;BME280;66064;50.226;14.344;2023-03-21T14:53:12;99264.19;;;18.79;42.88
77112;BME280;66064;50.226;14.344;2023-03-21T14:56:19;99276.34;;;18.61;41.63
77112;BME280;66064;50.226;14.344;2023-03-21T14:58:47;99265.88;;;18.49;40.93
77112;BME280;66064;50.226;14.344;2023-03-21T15:01:26;99253.06;;;18.57;41.35
77112;BME280;66064;50.226;14.344;2023-03-21T15:03:53;99260.28;;;18.55;40.95
77112;BME280;66064;50.226;14.344;2023-03-21T15:06:26;99259.84;;;18.02;42.02
77112;BME280;66064;50.226;14.344;2023-03-21T15:08:54;99265.78;;;18.18;42.28